createdAt,value
2017-12-26T00:00:49.180Z,4.94
2017-12-26T00:01:56.077Z,4.94
2017-12-26T00:03:02.830Z,4.93
2017-12-26T00:04:09.572Z,4.93
2017-12-26T00:05:16.306Z,4.95
2017-12-26T00:06:23.000Z,4.94
2017-12-26T00:07:29.700Z,4.94
2017-12-26T00:08:36.524Z,4.94
2017-12-26T00:09:43.213Z,4.94
2017-12-26T00:10:49.922Z,4.94
2017-12-26T00:11:56.613Z,4.94
2017-12-26T00:13:03.301Z,4.94
2017-12-26T00:14:10.013Z,4.93
2017-12-26T00:15:16.717Z,4.94
2017-12-26T00:16:23.387Z,4.94
2017-12-26T00:17:30.073Z,4.94
2017-12-26T00:18:36.753Z,4.93
2017-12-26T00:19:43.608Z,4.94
2017-12-26T00:20:50.315Z,4.94
2017-12-26T00:21:56.996Z,4.93
2017-12-26T00:23:03.692Z,4.93
2017-12-26T00:24:10.409Z,4.93
2017-12-26T00:25:17.116Z,4.91
2017-12-26T00:26:23.789Z,4.93
2017-12-26T00:27:30.496Z,4.92
2017-12-26T00:28:37.302Z,4.92
2017-12-26T00:29:44.024Z,4.91
2017-12-26T00:30:55.932Z,4.91
2017-12-26T00:31:57.745Z,4.91
2017-12-26T00:33:04.432Z,4.90
2017-12-26T00:34:11.156Z,4.91
2017-12-26T00:35:17.880Z,4.91
2017-12-26T00:36:24.624Z,4.90
2017-12-26T00:37:31.317Z,4.89
2017-12-26T00:38:37.996Z,4.89
2017-12-26T00:39:45.168Z,4.89
2017-12-26T00:40:51.865Z,4.87
2017-12-26T00:41:58.737Z,4.87
2017-12-26T00:43:05.464Z,4.88
2017-12-26T00:44:12.163Z,4.87
2017-12-26T00:45:18.941Z,4.86
2017-12-26T00:46:25.639Z,4.87
2017-12-26T00:47:32.440Z,4.86
2017-12-26T00:48:39.128Z,4.87
2017-12-26T00:49:45.820Z,4.86
2017-12-26T00:50:52.541Z,4.84
2017-12-26T00:51:59.220Z,4.85
2017-12-26T00:53:05.916Z,4.84
2017-12-26T00:54:12.592Z,4.84
2017-12-26T00:55:19.285Z,4.84
2017-12-26T00:56:26.006Z,4.81
2017-12-26T00:57:32.680Z,4.83
2017-12-26T00:58:39.484Z,4.80
2017-12-26T00:59:46.224Z,4.82
2017-12-26T01:00:52.981Z,4.80
2017-12-26T01:01:59.709Z,4.81
2017-12-26T01:03:06.465Z,4.80
2017-12-26T01:04:13.265Z,4.79
2017-12-26T01:05:19.994Z,4.78
2017-12-26T01:06:26.778Z,4.78
2017-12-26T01:07:33.529Z,4.76
2017-12-26T01:08:40.377Z,4.75
2017-12-26T01:09:47.196Z,4.76
2017-12-26T01:10:53.974Z,4.74
2017-12-26T01:12:00.702Z,4.74
2017-12-26T01:13:07.504Z,4.74
2017-12-26T01:14:14.229Z,4.73
2017-12-26T01:15:20.988Z,4.73
2017-12-26T01:16:27.745Z,4.71
2017-12-26T01:17:34.491Z,4.71
2017-12-26T01:18:41.281Z,4.71
2017-12-26T01:19:48.018Z,4.70
2017-12-26T01:20:54.772Z,4.70
2017-12-26T01:22:01.580Z,4.69
2017-12-26T01:23:08.377Z,4.69
2017-12-26T01:24:15.116Z,4.68
2017-12-26T01:25:21.851Z,4.66
2017-12-26T01:26:28.628Z,4.68
2017-12-26T01:27:35.564Z,4.65
2017-12-26T01:28:42.317Z,4.65
2017-12-26T01:29:49.080Z,4.65
2017-12-26T01:30:55.927Z,4.63
2017-12-26T01:32:02.672Z,4.64
2017-12-26T01:33:09.448Z,4.63
2017-12-26T01:34:16.193Z,4.61
2017-12-26T01:35:22.987Z,4.59
2017-12-26T01:36:29.743Z,4.59
2017-12-26T01:37:36.485Z,4.59
2017-12-26T01:38:43.228Z,4.57
2017-12-26T01:39:50.042Z,4.56
2017-12-26T01:40:56.780Z,4.56
2017-12-26T01:42:03.553Z,4.54
2017-12-26T01:43:10.304Z,4.54
2017-12-26T01:44:17.105Z,4.54
2017-12-26T01:45:23.932Z,4.53
2017-12-26T01:46:30.681Z,4.53
2017-12-26T01:47:37.555Z,4.50
2017-12-26T01:48:44.288Z,4.50
2017-12-26T01:49:51.034Z,4.49
2017-12-26T01:50:57.775Z,4.48
2017-12-26T01:52:04.613Z,4.48
2017-12-26T01:53:11.368Z,4.46
2017-12-26T01:54:18.151Z,4.45
2017-12-26T01:55:24.901Z,4.46
2017-12-26T01:56:31.694Z,4.43
2017-12-26T01:57:38.517Z,4.42
2017-12-26T01:58:45.260Z,4.44
2017-12-26T01:59:51.990Z,4.41
2017-12-26T02:00:58.765Z,4.41
2017-12-26T02:02:05.489Z,4.40
2017-12-26T02:03:12.269Z,4.38
2017-12-26T02:04:19.000Z,4.37
2017-12-26T02:05:25.840Z,4.38
2017-12-26T02:06:32.609Z,4.36
2017-12-26T02:07:39.376Z,4.37
2017-12-26T02:08:46.128Z,4.35
2017-12-26T02:09:52.904Z,4.32
2017-12-26T02:10:59.664Z,4.33
2017-12-26T02:12:06.525Z,4.31
2017-12-26T02:13:13.403Z,4.30
2017-12-26T02:14:20.137Z,4.30
2017-12-26T02:15:26.905Z,4.28
2017-12-26T02:16:33.632Z,4.28
2017-12-26T02:17:40.423Z,4.27
2017-12-26T02:18:47.200Z,4.26
2017-12-26T02:19:53.937Z,4.26
2017-12-26T02:21:00.693Z,4.24
2017-12-26T02:22:07.497Z,4.23
2017-12-26T02:23:14.253Z,4.23
2017-12-26T02:24:21.058Z,4.21
2017-12-26T02:25:27.786Z,4.20
2017-12-26T02:26:34.576Z,4.19
2017-12-26T02:27:41.330Z,4.18
2017-12-26T02:28:48.105Z,4.16
2017-12-26T02:29:54.868Z,4.17
2017-12-26T02:31:01.760Z,4.16
2017-12-26T02:32:08.479Z,4.15
2017-12-26T02:33:15.325Z,4.13
2017-12-26T02:34:22.116Z,4.12
2017-12-26T02:35:28.869Z,4.12
2017-12-26T02:36:35.609Z,4.11
2017-12-26T02:37:42.340Z,4.10
2017-12-26T02:38:49.202Z,4.09
2017-12-26T02:39:56.022Z,4.09
2017-12-26T02:41:02.764Z,4.08
2017-12-26T02:42:09.515Z,4.08
2017-12-26T02:43:16.298Z,4.06
2017-12-26T02:44:23.068Z,4.04
2017-12-26T02:45:29.834Z,4.05
2017-12-26T02:46:36.556Z,4.03
2017-12-26T02:47:43.396Z,4.04
2017-12-26T02:48:50.164Z,4.02
2017-12-26T02:49:56.919Z,4.00
2017-12-26T02:51:03.681Z,3.99
2017-12-26T02:52:10.505Z,3.97
2017-12-26T02:53:17.220Z,3.97
2017-12-26T02:54:24.011Z,3.96
2017-12-26T02:55:30.742Z,3.96
2017-12-26T02:56:37.500Z,3.95
2017-12-26T02:57:44.360Z,3.94
2017-12-26T02:58:51.129Z,3.92
2017-12-26T02:59:57.912Z,3.92
2017-12-26T03:01:04.725Z,3.91
2017-12-26T03:02:11.487Z,3.90
2017-12-26T03:03:18.228Z,3.89
2017-12-26T03:04:24.966Z,3.89
2017-12-26T03:05:31.737Z,3.87
2017-12-26T03:06:38.497Z,3.86
2017-12-26T03:07:45.250Z,3.87
2017-12-26T03:08:52.010Z,3.85
2017-12-26T03:09:58.845Z,3.84
2017-12-26T03:11:05.629Z,3.84
2017-12-26T03:12:12.388Z,3.83
2017-12-26T03:13:19.113Z,3.81
2017-12-26T03:14:25.868Z,3.82
2017-12-26T03:15:32.727Z,3.79
2017-12-26T03:16:39.487Z,3.79
2017-12-26T03:17:46.257Z,3.78
2017-12-26T03:18:53.098Z,3.78
2017-12-26T03:19:59.821Z,3.77
2017-12-26T03:21:06.600Z,3.75
2017-12-26T03:22:13.337Z,3.74
2017-12-26T03:22:31.828Z,3.72
2017-12-26T03:23:38.536Z,3.73
2017-12-26T03:24:45.378Z,3.72
2017-12-26T03:25:52.157Z,3.72
2017-12-26T03:26:58.928Z,3.71
2017-12-26T03:28:05.811Z,3.72
2017-12-26T03:29:12.605Z,3.69
2017-12-26T03:30:19.353Z,3.69
2017-12-26T03:31:26.118Z,3.68
2017-12-26T03:32:33.017Z,3.67
2017-12-26T03:33:39.756Z,3.67
2017-12-26T03:34:46.531Z,3.66
2017-12-26T03:35:53.399Z,3.64
2017-12-26T03:37:00.148Z,3.63
2017-12-26T03:38:06.920Z,3.63
2017-12-26T03:39:13.669Z,3.61
2017-12-26T03:40:20.513Z,3.61
2017-12-26T03:41:27.288Z,3.60
2017-12-26T03:42:34.041Z,3.58
2017-12-26T03:43:40.784Z,3.58
2017-12-26T03:44:47.612Z,3.58
2017-12-26T03:45:54.340Z,3.55
2017-12-26T03:47:01.156Z,3.56
2017-12-26T03:48:07.984Z,3.56
2017-12-26T03:49:14.749Z,3.55
2017-12-26T03:50:21.473Z,3.53
2017-12-26T03:51:28.226Z,3.55
2017-12-26T03:52:35.015Z,3.52
2017-12-26T03:53:41.873Z,3.53
2017-12-26T03:54:48.645Z,3.52
2017-12-26T03:55:55.407Z,3.51
2017-12-26T03:57:02.133Z,3.51
2017-12-26T03:58:08.999Z,3.52
2017-12-26T03:59:15.765Z,3.49
2017-12-26T04:00:22.499Z,3.48
2017-12-26T04:01:29.270Z,3.49
2017-12-26T04:02:36.126Z,3.49
2017-12-26T04:03:42.891Z,3.49
2017-12-26T04:04:49.662Z,3.47
2017-12-26T04:05:56.406Z,3.47
2017-12-26T04:07:03.210Z,3.46
2017-12-26T04:08:09.980Z,3.45
2017-12-26T04:09:16.740Z,3.45
2017-12-26T04:10:23.700Z,3.44
2017-12-26T04:11:30.496Z,3.44
2017-12-26T04:12:37.277Z,3.44
2017-12-26T04:13:44.020Z,3.43
2017-12-26T04:14:50.802Z,3.42
2017-12-26T04:15:57.567Z,3.42
2017-12-26T04:17:04.340Z,3.41
2017-12-26T04:18:11.095Z,3.43
2017-12-26T04:19:17.900Z,3.40
2017-12-26T04:20:24.650Z,3.40
2017-12-26T04:21:31.436Z,3.39
2017-12-26T04:22:38.168Z,3.40
2017-12-26T04:23:45.054Z,3.37
2017-12-26T04:24:51.837Z,3.37
2017-12-26T04:25:58.593Z,3.37
2017-12-26T04:27:05.318Z,3.36
2017-12-26T04:28:12.162Z,3.36
2017-12-26T04:29:18.930Z,3.35
2017-12-26T04:30:25.682Z,3.36
2017-12-26T04:31:32.420Z,3.36
2017-12-26T04:32:39.270Z,3.36
2017-12-26T04:33:46.053Z,3.34
2017-12-26T04:34:52.871Z,3.34
2017-12-26T04:35:59.725Z,3.33
2017-12-26T04:37:06.461Z,3.32
2017-12-26T04:38:13.237Z,3.33
2017-12-26T04:39:19.989Z,3.31
2017-12-26T04:40:26.815Z,3.34
2017-12-26T04:41:33.701Z,3.32
2017-12-26T04:42:40.605Z,3.31
2017-12-26T04:43:47.353Z,3.32
2017-12-26T04:44:54.137Z,3.32
2017-12-26T04:46:00.853Z,3.32
2017-12-26T04:47:07.719Z,3.30
2017-12-26T04:48:14.500Z,3.30
2017-12-26T04:49:21.272Z,3.33
2017-12-26T04:50:28.014Z,3.31
2017-12-26T04:51:34.845Z,3.30
2017-12-26T04:52:41.604Z,3.29
2017-12-26T04:53:48.397Z,3.31
2017-12-26T04:54:55.208Z,3.30
2017-12-26T04:56:01.949Z,3.29
2017-12-26T04:57:08.817Z,3.28
2017-12-26T04:58:15.584Z,3.29
2017-12-26T04:59:22.405Z,3.29
2017-12-26T05:00:29.201Z,3.29
2017-12-26T05:01:35.945Z,3.28
2017-12-26T05:02:42.708Z,3.27
2017-12-26T05:03:49.492Z,3.28
2017-12-26T05:04:56.279Z,3.28
2017-12-26T05:06:03.042Z,3.27
2017-12-26T05:07:09.813Z,3.27
2017-12-26T05:08:16.606Z,3.26
2017-12-26T05:09:23.377Z,3.27
2017-12-26T05:10:30.104Z,3.27
2017-12-26T05:11:36.898Z,3.27
2017-12-26T05:12:43.706Z,3.26
2017-12-26T05:13:50.460Z,3.25
2017-12-26T05:14:57.228Z,3.26
2017-12-26T05:16:04.023Z,3.26
2017-12-26T05:17:10.800Z,3.25
2017-12-26T05:18:17.560Z,3.26
2017-12-26T05:19:24.324Z,3.25
2017-12-26T05:20:31.068Z,3.25
2017-12-26T05:21:37.905Z,3.26
2017-12-26T05:22:44.661Z,3.24
2017-12-26T05:23:51.416Z,3.24
2017-12-26T05:24:58.136Z,3.24
2017-12-26T05:26:04.994Z,3.25
2017-12-26T05:27:11.772Z,3.25
2017-12-26T05:28:18.513Z,3.26
2017-12-26T05:29:25.270Z,3.25
2017-12-26T05:30:32.105Z,3.24
2017-12-26T05:31:38.873Z,3.24
2017-12-26T05:32:45.633Z,3.25
2017-12-26T05:33:52.349Z,3.23
2017-12-26T05:34:59.073Z,3.27
2017-12-26T05:36:05.869Z,3.24
2017-12-26T05:37:12.728Z,3.26
2017-12-26T05:38:19.588Z,3.23
2017-12-26T05:39:26.343Z,3.25
2017-12-26T05:40:33.105Z,3.25
2017-12-26T05:41:39.877Z,3.25
2017-12-26T05:42:46.633Z,3.25
2017-12-26T05:43:53.451Z,3.25
2017-12-26T05:45:00.220Z,3.24
2017-12-26T05:46:06.949Z,3.25
2017-12-26T05:47:13.729Z,3.24
2017-12-26T05:48:20.589Z,3.25
2017-12-26T05:49:27.329Z,3.24
2017-12-26T05:50:34.079Z,3.25
2017-12-26T05:51:40.800Z,3.25
2017-12-26T05:52:47.672Z,3.25
2017-12-26T05:53:54.429Z,3.26
2017-12-26T05:55:01.275Z,3.26
2017-12-26T05:56:08.108Z,3.25
2017-12-26T05:57:14.856Z,3.25
2017-12-26T05:58:21.610Z,3.24
2017-12-26T05:59:28.366Z,3.26
2017-12-26T06:00:35.327Z,3.26
2017-12-26T06:01:42.148Z,3.25
2017-12-26T06:02:49.064Z,3.26
2017-12-26T06:03:55.799Z,3.26
2017-12-26T06:05:02.552Z,3.26
2017-12-26T06:06:09.501Z,3.26
2017-12-26T06:07:16.215Z,3.26
2017-12-26T06:08:22.969Z,3.28
2017-12-26T06:09:29.722Z,3.28
2017-12-26T06:10:36.453Z,3.29
2017-12-26T06:11:43.276Z,3.29
2017-12-26T06:12:50.174Z,3.29
2017-12-26T06:13:57.129Z,3.29
2017-12-26T06:15:03.909Z,3.29
2017-12-26T06:16:10.664Z,3.30
2017-12-26T06:17:17.531Z,3.30
2017-12-26T06:18:24.296Z,3.31
2017-12-26T06:19:31.065Z,3.31
2017-12-26T06:20:37.801Z,3.32
2017-12-26T06:21:44.671Z,3.31
2017-12-26T06:22:51.529Z,3.32
2017-12-26T06:23:58.261Z,3.33
2017-12-26T06:25:05.169Z,3.34
2017-12-26T06:26:11.924Z,3.35
2017-12-26T06:27:18.717Z,3.35
2017-12-26T06:28:25.509Z,3.37
2017-12-26T06:29:32.306Z,3.36
2017-12-26T06:30:39.318Z,3.36
2017-12-26T06:31:46.061Z,3.38
2017-12-26T06:32:52.831Z,3.38
2017-12-26T06:33:59.553Z,3.40
2017-12-26T06:35:06.408Z,3.40
2017-12-26T06:36:13.165Z,3.43
2017-12-26T06:37:19.905Z,3.42
2017-12-26T06:38:26.664Z,3.43
2017-12-26T06:39:33.627Z,3.44
2017-12-26T06:40:40.393Z,3.45
2017-12-26T06:41:47.137Z,3.47
2017-12-26T06:42:53.998Z,3.48
2017-12-26T06:44:00.738Z,3.49
2017-12-26T06:45:07.615Z,3.49
2017-12-26T06:46:14.472Z,3.50
2017-12-26T06:47:21.265Z,3.52
2017-12-26T06:48:28.160Z,3.53
2017-12-26T06:49:34.920Z,3.53
2017-12-26T06:50:41.701Z,3.54
2017-12-26T06:51:48.461Z,3.55
2017-12-26T06:52:55.260Z,3.56
2017-12-26T06:54:02.029Z,3.59
2017-12-26T06:55:08.818Z,3.59
2017-12-26T06:56:15.732Z,3.61
2017-12-26T06:57:22.575Z,3.62
2017-12-26T06:58:29.477Z,3.64
2017-12-26T06:59:37.610Z,3.63
2017-12-26T07:00:43.424Z,3.66
2017-12-26T07:01:50.191Z,3.67
2017-12-26T07:02:56.983Z,3.67
2017-12-26T07:04:03.804Z,3.69
2017-12-26T07:05:10.581Z,3.69
2017-12-26T07:06:17.368Z,3.71
2017-12-26T07:07:24.267Z,3.73
2017-12-26T07:08:31.021Z,3.73
2017-12-26T07:09:37.794Z,3.75
2017-12-26T07:10:44.717Z,3.77
2017-12-26T07:11:51.565Z,3.78
2017-12-26T07:12:58.500Z,3.78
2017-12-26T07:14:05.262Z,3.80
2017-12-26T07:15:12.124Z,3.83
2017-12-26T07:16:18.977Z,3.83
2017-12-26T07:17:25.758Z,3.84
2017-12-26T07:18:32.547Z,3.86
2017-12-26T07:19:39.433Z,3.86
2017-12-26T07:20:46.148Z,3.89
2017-12-26T07:21:53.017Z,3.89
2017-12-26T07:22:59.739Z,3.90
2017-12-26T07:24:06.397Z,3.92
2017-12-26T07:25:13.209Z,3.94
2017-12-26T07:26:19.974Z,3.96
2017-12-26T07:27:26.778Z,3.97
2017-12-26T07:28:33.668Z,3.99
2017-12-26T07:29:40.436Z,3.99
2017-12-26T07:30:47.184Z,4.00
2017-12-26T07:31:54.004Z,4.02
2017-12-26T07:33:00.813Z,4.03
2017-12-26T07:34:07.612Z,4.05
2017-12-26T07:35:14.428Z,4.05
2017-12-26T07:36:21.276Z,4.07
2017-12-26T07:37:28.037Z,4.09
2017-12-26T07:38:34.838Z,4.10
2017-12-26T07:39:41.787Z,4.12
2017-12-26T07:40:48.593Z,4.13
2017-12-26T07:41:55.376Z,4.14
2017-12-26T07:43:02.240Z,4.16
2017-12-26T07:44:09.091Z,4.18
2017-12-26T07:45:15.858Z,4.19
2017-12-26T07:46:22.727Z,4.19
2017-12-26T07:47:29.597Z,4.20
2017-12-26T07:48:36.538Z,4.22
2017-12-26T07:49:43.353Z,4.25
2017-12-26T07:50:50.231Z,4.26
2017-12-26T07:51:57.084Z,4.26
2017-12-26T07:53:04.028Z,4.28
2017-12-26T07:54:10.882Z,4.29
2017-12-26T07:55:17.732Z,4.31
2017-12-26T07:56:25.649Z,4.31
2017-12-26T07:57:31.501Z,4.33
2017-12-26T07:58:38.425Z,4.34
2017-12-26T07:59:45.407Z,4.35
2017-12-26T08:00:52.548Z,4.38
2017-12-26T08:01:58.943Z,4.38
2017-12-26T08:03:05.919Z,4.41
2017-12-26T08:04:13.077Z,4.41
2017-12-26T08:05:19.776Z,4.44
2017-12-26T08:06:26.400Z,4.44
2017-12-26T08:07:33.049Z,4.47
2017-12-26T08:08:39.950Z,4.47
2017-12-26T08:09:46.860Z,4.48
2017-12-26T08:10:53.914Z,4.51
2017-12-26T08:12:00.782Z,4.51
2017-12-26T08:13:07.620Z,4.53
2017-12-26T08:14:14.585Z,4.56
2017-12-26T08:15:21.525Z,4.57
2017-12-26T08:16:28.414Z,4.57
2017-12-26T08:17:35.512Z,4.58
2017-12-26T08:18:42.407Z,4.60
2017-12-26T08:19:49.296Z,4.62
2017-12-26T08:20:56.156Z,4.63
2017-12-26T08:22:03.151Z,4.64
2017-12-26T08:23:10.122Z,4.66
2017-12-26T08:24:17.038Z,4.68
2017-12-26T08:25:23.856Z,4.68
2017-12-26T08:26:30.854Z,4.70
2017-12-26T08:27:38.682Z,4.72
2017-12-26T08:28:44.837Z,4.72
2017-12-26T08:29:52.394Z,4.73
2017-12-26T08:30:58.796Z,4.73
2017-12-26T08:32:06.528Z,4.75
2017-12-26T08:33:12.665Z,4.77
2017-12-26T08:34:19.798Z,4.78
2017-12-26T08:35:26.981Z,4.79
2017-12-26T08:36:33.703Z,4.80
2017-12-26T08:37:40.574Z,4.81
2017-12-26T08:38:47.175Z,4.83
2017-12-26T08:39:54.402Z,4.84
2017-12-26T08:41:07.477Z,4.85
2017-12-26T08:42:09.240Z,4.89
2017-12-26T08:43:15.699Z,4.89
2017-12-26T08:48:23.195Z,4.90
2017-12-26T08:49:28.097Z,4.96
2017-12-26T08:50:35.267Z,4.97
2017-12-26T08:51:42.018Z,4.98
2017-12-26T08:55:02.969Z,5.02
2017-12-26T08:56:10.066Z,5.02
2017-12-26T08:57:16.457Z,5.04
2017-12-26T08:58:31.801Z,5.06
2017-12-26T08:59:31.133Z,5.07
2017-12-26T09:00:37.469Z,5.08
2017-12-26T09:01:43.923Z,5.09
2017-12-26T09:02:50.806Z,5.09
2017-12-26T09:03:58.125Z,5.11
2017-12-26T09:05:04.810Z,5.12
2017-12-26T09:06:11.861Z,5.15
2017-12-26T09:07:18.831Z,5.15
2017-12-26T09:08:25.900Z,5.15
2017-12-26T09:09:32.730Z,5.16
2017-12-26T09:10:39.540Z,5.17
2017-12-26T09:11:46.311Z,5.18
2017-12-26T09:12:53.066Z,5.19
2017-12-26T09:13:59.860Z,5.21
2017-12-26T09:15:06.749Z,5.21
2017-12-26T09:16:13.676Z,5.23
2017-12-26T09:17:20.474Z,5.24
2017-12-26T09:18:27.249Z,5.24
2017-12-26T09:19:34.031Z,5.25
2017-12-26T09:21:47.964Z,5.29
2017-12-26T09:22:54.889Z,5.30
2017-12-26T09:24:01.826Z,5.30
2017-12-26T09:25:08.705Z,5.30
2017-12-26T09:26:15.714Z,5.32
2017-12-26T09:27:22.732Z,5.33
2017-12-26T09:28:29.450Z,5.34
2017-12-26T09:29:36.454Z,5.35
2017-12-26T09:30:43.147Z,5.36
2017-12-26T09:31:50.089Z,5.37
2017-12-26T09:32:56.928Z,5.38
2017-12-26T09:34:03.848Z,5.38
2017-12-26T09:35:10.834Z,5.40
2017-12-26T09:36:18.838Z,5.42
2017-12-26T09:37:24.978Z,5.42
2017-12-26T09:38:31.812Z,5.44
2017-12-26T09:39:38.766Z,5.44
2017-12-26T09:40:45.933Z,5.46
2017-12-26T09:41:52.784Z,5.45
2017-12-26T09:42:59.703Z,5.47
2017-12-26T09:44:06.516Z,5.48
2017-12-26T09:45:13.365Z,5.49
2017-12-26T09:46:20.306Z,5.50
2017-12-26T09:47:27.149Z,5.51
2017-12-26T09:48:33.949Z,5.50
2017-12-26T09:49:40.776Z,5.53
2017-12-26T09:50:47.598Z,5.53
2017-12-26T09:51:54.457Z,5.53
2017-12-26T09:53:01.376Z,5.53
2017-12-26T09:54:08.216Z,5.56
2017-12-26T09:55:15.038Z,5.58
2017-12-26T09:56:21.971Z,5.58
2017-12-26T09:57:29.898Z,5.59
2017-12-26T09:58:36.000Z,5.59
2017-12-26T09:59:42.863Z,5.61
2017-12-26T10:00:49.769Z,5.60
2017-12-26T10:01:56.621Z,5.61
2017-12-26T10:03:03.473Z,5.61
2017-12-26T10:04:10.289Z,5.63
2017-12-26T10:05:17.264Z,5.65
2017-12-26T10:06:24.025Z,5.66
2017-12-26T10:07:31.056Z,5.66
2017-12-26T10:08:37.845Z,5.67
2017-12-26T10:09:44.652Z,5.68
2017-12-26T10:10:51.676Z,5.68
2017-12-26T10:11:58.496Z,5.69
2017-12-26T10:13:05.293Z,5.72
2017-12-26T10:14:12.078Z,5.69
2017-12-26T10:15:18.845Z,5.73
2017-12-26T10:16:25.632Z,5.73
2017-12-26T10:17:32.384Z,5.73
2017-12-26T10:18:39.172Z,5.74
2017-12-26T10:19:45.945Z,5.75
2017-12-26T10:20:52.708Z,5.76
2017-12-26T10:21:59.601Z,5.76
2017-12-26T10:23:06.369Z,5.78
2017-12-26T10:24:13.129Z,5.78
2017-12-26T10:25:19.922Z,5.78
2017-12-26T10:26:26.714Z,5.79
2017-12-26T10:27:33.554Z,5.81
2017-12-26T10:28:40.376Z,5.81
2017-12-26T10:29:47.285Z,5.82
2017-12-26T10:30:54.145Z,5.82
2017-12-26T10:32:00.889Z,5.82
2017-12-26T10:33:07.653Z,5.82
2017-12-26T10:34:14.448Z,5.84
2017-12-26T10:35:21.290Z,5.86
2017-12-26T10:36:28.075Z,5.86
2017-12-26T10:37:34.829Z,5.87
2017-12-26T10:38:41.686Z,5.88
2017-12-26T10:39:48.462Z,5.90
2017-12-26T10:40:55.215Z,5.91
2017-12-26T10:42:01.964Z,5.92
2017-12-26T10:43:08.791Z,5.93
2017-12-26T10:44:15.565Z,5.94
2017-12-26T10:45:22.353Z,5.95
2017-12-26T10:46:29.246Z,5.95
2017-12-26T10:47:35.986Z,5.96
2017-12-26T10:48:42.734Z,5.97
2017-12-26T10:49:49.535Z,5.98
2017-12-26T10:50:56.439Z,5.99
2017-12-26T10:52:03.237Z,6.00
2017-12-26T10:53:10.015Z,6.01
2017-12-26T10:54:16.822Z,6.01
2017-12-26T10:55:23.609Z,6.03
2017-12-26T10:56:30.422Z,6.02
2017-12-26T10:57:37.249Z,6.03
2017-12-26T10:58:44.012Z,6.04
2017-12-26T10:59:50.756Z,6.04
2017-12-26T11:00:57.547Z,6.05
2017-12-26T11:02:04.361Z,6.05
2017-12-26T11:03:11.146Z,6.07
2017-12-26T11:04:18.151Z,6.07
2017-12-26T11:05:24.922Z,6.06
2017-12-26T11:06:31.686Z,6.08
2017-12-26T11:07:38.572Z,6.09
2017-12-26T11:08:45.321Z,6.11
2017-12-26T11:09:52.058Z,6.10
2017-12-26T11:10:58.801Z,6.10
2017-12-26T11:12:05.808Z,6.11
2017-12-26T11:13:12.546Z,6.12
2017-12-26T11:14:19.306Z,6.12
2017-12-26T11:15:26.128Z,6.14
2017-12-26T11:16:32.880Z,6.15
2017-12-26T11:17:39.649Z,6.15
2017-12-26T11:18:46.390Z,6.16
2017-12-26T11:19:53.178Z,6.16
2017-12-26T11:20:59.919Z,6.17
2017-12-26T11:22:06.649Z,6.18
2017-12-26T11:23:13.414Z,6.21
2017-12-26T11:24:20.266Z,6.19
2017-12-26T11:25:27.018Z,6.22
2017-12-26T11:26:33.805Z,6.22
2017-12-26T11:27:40.541Z,6.23
2017-12-26T11:28:47.398Z,6.25
2017-12-26T11:29:54.266Z,6.24
2017-12-26T11:31:00.996Z,6.25
2017-12-26T11:32:07.802Z,6.27
2017-12-26T11:33:14.565Z,6.28
2017-12-26T11:34:21.338Z,6.28
2017-12-26T11:35:28.078Z,6.29
2017-12-26T11:36:34.861Z,6.29
2017-12-26T11:37:41.597Z,6.29
2017-12-26T11:38:48.450Z,6.30
2017-12-26T11:39:55.282Z,6.32
2017-12-26T11:41:02.030Z,6.33
2017-12-26T11:42:08.777Z,6.32
2017-12-26T11:43:15.542Z,6.34
2017-12-26T11:44:22.380Z,6.34
2017-12-26T11:45:29.146Z,6.34
2017-12-26T11:46:35.881Z,6.36
2017-12-26T11:47:42.622Z,6.36
2017-12-26T11:48:49.423Z,6.35
2017-12-26T11:49:56.174Z,6.36
2017-12-26T11:51:02.945Z,6.37
2017-12-26T11:52:09.816Z,6.38
2017-12-26T11:53:16.577Z,6.38
2017-12-26T11:54:23.362Z,6.38
2017-12-26T11:55:30.106Z,6.37
2017-12-26T11:56:36.907Z,6.38
2017-12-26T11:57:43.654Z,6.39
2017-12-26T11:58:50.386Z,6.41
2017-12-26T11:59:57.153Z,6.42
2017-12-26T12:01:03.979Z,6.42
2017-12-26T12:02:10.746Z,6.42
2017-12-26T12:03:17.499Z,6.44
2017-12-26T12:04:24.230Z,6.42
2017-12-26T12:05:31.079Z,6.45
2017-12-26T12:06:37.840Z,6.45
2017-12-26T12:07:44.577Z,6.47
2017-12-26T12:08:51.313Z,6.48
2017-12-26T12:09:58.186Z,6.48
2017-12-26T12:11:04.939Z,6.50
2017-12-26T12:12:11.747Z,6.48
2017-12-26T12:13:18.582Z,6.50
2017-12-26T12:14:26.637Z,6.51
2017-12-26T12:15:32.397Z,6.51
2017-12-26T12:16:39.145Z,6.52
2017-12-26T12:17:45.886Z,6.52
2017-12-26T12:18:52.611Z,6.53
2017-12-26T12:19:59.555Z,6.53
2017-12-26T12:21:06.327Z,6.55
2017-12-26T12:22:13.077Z,6.55
2017-12-26T12:23:19.922Z,6.54
2017-12-26T12:24:26.686Z,6.57
2017-12-26T12:25:33.570Z,6.58
2017-12-26T12:26:40.340Z,6.58
2017-12-26T12:27:47.091Z,6.58
2017-12-26T12:28:53.865Z,6.59
2017-12-26T12:30:00.603Z,6.60
2017-12-26T12:31:07.454Z,6.61
2017-12-26T12:32:14.230Z,6.60
2017-12-26T12:33:21.067Z,6.61
2017-12-26T12:34:27.862Z,6.61
2017-12-26T12:35:34.617Z,6.62
2017-12-26T12:36:41.348Z,6.63
2017-12-26T12:37:48.088Z,6.64
2017-12-26T12:38:54.834Z,6.64
2017-12-26T12:40:01.582Z,6.64
2017-12-26T12:41:08.334Z,6.65
2017-12-26T12:42:15.070Z,6.64
2017-12-26T12:43:21.818Z,6.65
2017-12-26T12:44:28.657Z,6.66
2017-12-26T12:45:35.373Z,6.66
2017-12-26T12:46:42.156Z,6.67
2017-12-26T12:47:48.889Z,6.67
2017-12-26T12:48:55.801Z,6.68
2017-12-26T12:50:02.609Z,6.70
2017-12-26T12:51:09.470Z,6.70
2017-12-26T12:52:16.234Z,6.70
2017-12-26T12:53:23.181Z,6.70
2017-12-26T12:54:29.993Z,6.71
2017-12-26T12:55:36.718Z,6.72
2017-12-26T12:56:43.535Z,6.71
2017-12-26T12:57:50.290Z,6.71
2017-12-26T12:58:57.110Z,6.72
2017-12-26T13:00:03.854Z,6.72
2017-12-26T13:01:10.654Z,6.72
2017-12-26T13:02:17.782Z,6.73
2017-12-26T13:03:24.537Z,6.75
2017-12-26T13:04:31.354Z,6.73
2017-12-26T13:05:38.094Z,6.76
2017-12-26T13:06:44.873Z,6.75
2017-12-26T13:07:51.614Z,6.77
2017-12-26T13:08:58.434Z,6.77
2017-12-26T13:10:05.205Z,6.76
2017-12-26T13:11:11.953Z,6.76
2017-12-26T13:12:18.757Z,6.77
2017-12-26T13:13:25.575Z,6.76
2017-12-26T13:14:32.327Z,6.77
2017-12-26T13:15:39.116Z,6.76
2017-12-26T13:16:45.977Z,6.76
2017-12-26T13:17:52.750Z,6.77
2017-12-26T13:18:59.529Z,6.78
2017-12-26T13:20:06.286Z,6.77
2017-12-26T13:21:13.038Z,6.77
2017-12-26T13:22:19.806Z,6.79
2017-12-26T13:23:26.545Z,6.79
2017-12-26T13:24:33.277Z,6.78
2017-12-26T13:25:40.129Z,6.78
2017-12-26T13:26:46.965Z,6.77
2017-12-26T13:27:53.747Z,6.77
2017-12-26T13:29:00.594Z,6.78
2017-12-26T13:30:07.347Z,6.79
2017-12-26T13:31:14.098Z,6.79
2017-12-26T13:32:20.851Z,6.78
2017-12-26T13:33:27.694Z,6.78
2017-12-26T13:34:35.087Z,6.77
2017-12-26T13:35:41.341Z,6.78
2017-12-26T13:36:48.121Z,6.79
2017-12-26T13:37:54.884Z,6.80
2017-12-26T13:39:01.644Z,6.79
2017-12-26T13:40:08.444Z,6.79
2017-12-26T13:41:15.224Z,6.79
2017-12-26T13:42:21.963Z,6.79
2017-12-26T13:43:28.983Z,6.78
2017-12-26T13:44:35.888Z,6.80
2017-12-26T13:45:42.640Z,6.79
2017-12-26T13:46:49.471Z,6.79
2017-12-26T13:47:56.271Z,6.79
2017-12-26T13:49:03.141Z,6.78
2017-12-26T13:50:11.179Z,6.79
2017-12-26T13:51:16.608Z,6.79
2017-12-26T13:52:23.431Z,6.80
2017-12-26T13:53:30.379Z,6.79
2017-12-26T13:54:37.293Z,6.79
2017-12-26T13:55:43.953Z,6.78
2017-12-26T13:56:50.939Z,6.79
2017-12-26T13:57:57.758Z,6.78
2017-12-26T13:59:04.616Z,6.77
2017-12-26T14:00:11.399Z,6.76
2017-12-26T14:01:18.528Z,6.77
2017-12-26T14:02:25.321Z,6.76
2017-12-26T14:03:32.157Z,6.76
2017-12-26T14:04:38.946Z,6.77
2017-12-26T14:05:45.737Z,6.77
2017-12-26T14:06:52.589Z,6.76
2017-12-26T14:07:59.319Z,6.76
2017-12-26T14:09:06.253Z,6.75
2017-12-26T14:10:13.053Z,6.75
2017-12-26T14:11:19.853Z,6.75
2017-12-26T14:12:26.634Z,6.74
2017-12-26T14:13:33.509Z,6.74
2017-12-26T14:14:40.296Z,6.74
2017-12-26T14:15:47.082Z,6.73
2017-12-26T14:16:53.924Z,6.74
2017-12-26T14:18:00.740Z,6.73
2017-12-26T14:19:07.524Z,6.72
2017-12-26T14:20:14.404Z,6.73
2017-12-26T14:21:21.114Z,6.73
2017-12-26T14:22:27.836Z,6.73
2017-12-26T14:23:34.600Z,6.71
2017-12-26T14:24:41.348Z,6.72
2017-12-26T14:25:48.164Z,6.72
2017-12-26T14:26:54.954Z,6.72
2017-12-26T14:28:01.752Z,6.73
2017-12-26T14:29:08.621Z,6.72
2017-12-26T14:30:15.384Z,6.72
2017-12-26T14:31:22.203Z,6.72
2017-12-26T14:32:29.079Z,6.73
2017-12-26T14:33:35.805Z,6.72
2017-12-26T14:34:42.564Z,6.72
2017-12-26T14:35:49.314Z,6.71
2017-12-26T14:36:56.027Z,6.70
2017-12-26T14:38:02.834Z,6.70
2017-12-26T14:39:09.596Z,6.70
2017-12-26T14:40:16.360Z,6.69
2017-12-26T14:41:23.116Z,6.69
2017-12-26T14:42:29.914Z,6.70
2017-12-26T14:43:36.678Z,6.68
2017-12-26T14:44:43.417Z,6.69
2017-12-26T14:45:50.189Z,6.69
2017-12-26T14:46:56.992Z,6.68
2017-12-26T14:48:03.757Z,6.69
2017-12-26T14:49:10.503Z,6.69
2017-12-26T14:50:17.228Z,6.66
2017-12-26T14:51:24.146Z,6.66
2017-12-26T14:52:30.984Z,6.67
2017-12-26T14:53:37.820Z,6.67
2017-12-26T14:54:44.632Z,6.68
2017-12-26T14:55:51.481Z,6.67